Time;durP1;ratioP1;P1;durP2;ratioP2;P2;SDS_P1;SDS_P2;PMS_P1;PMS_P2;Temp;Humidity;BMP_temperature;BMP_pressure;BME280_temperature;BME280_humidity;BME280_pressure;Samples;Min_cycle;Max_cycle;Signal;HPM_P1;HPM_P2
2023/08/06 00:01:23;;;;;;;3.38;1.80;;;;;;;21.98;55.74;100287.88;5000086;28;20038;-71
2023/08/06 00:03:49;;;;;;;3.33;1.58;;;;;;;21.98;55.78;100292.38;4999920;28;20049;-72
2023/08/06 00:06:14;;;;;;;3.25;1.60;;;;;;;21.98;56.09;100284.41;5000099;28;20026;-78
2023/08/06 00:08:39;;;;;;;3.22;1.60;;;;;;;21.97;55.73;100288.91;4999682;28;20605;-71
2023/08/06 00:11:05;;;;;;;4.85;1.85;;;;;;;21.97;55.70;100294.22;5000176;28;20475;-77
2023/08/06 00:13:30;;;;;;;3.65;1.88;;;;;;;21.96;55.68;100291.72;5000321;28;20494;-72
2023/08/06 00:15:55;;;;;;;3.55;1.58;;;;;;;21.97;55.72;100291.56;4999227;28;20536;-78
2023/08/06 00:18:21;;;;;;;4.35;1.73;;;;;;;21.95;55.86;100280.25;5000433;28;20026;-71
2023/08/06 00:20:46;;;;;;;2.78;1.42;;;;;;;21.96;56.19;100281.91;4998813;28;20467;-76
2023/08/06 00:23:11;;;;;;;3.80;1.73;;;;;;;21.97;56.04;100283.59;5000579;28;20040;-73
2023/08/06 00:25:37;;;;;;;3.13;1.70;;;;;;;21.95;55.81;100280.25;5000003;28;20109;-75
2023/08/06 00:28:02;;;;;;;3.92;1.83;;;;;;;21.95;55.78;100274.94;5000346;28;20172;-76
2023/08/06 00:30:27;;;;;;;3.70;2.00;;;;;;;21.95;55.84;100279.44;4999352;28;20056;-72
2023/08/06 00:32:52;;;;;;;4.18;1.77;;;;;;;21.94;56.00;100281.25;5002244;28;20467;-74
2023/08/06 00:35:18;;;;;;;4.03;1.60;;;;;;;21.95;56.08;100279.44;5003026;28;20375;-71
2023/08/06 00:37:43;;;;;;;3.33;1.70;;;;;;;21.95;55.84;100279.44;5003242;28;20050;-72
2023/08/06 00:40:08;;;;;;;3.70;1.73;;;;;;;21.93;55.99;100272.47;5003205;28;20044;-70
2023/08/06 00:42:34;;;;;;;4.82;1.50;;;;;;;21.93;55.82;100275.09;5002730;28;20097;-72
2023/08/06 00:45:00;;;;;;;3.45;1.45;;;;;;;21.93;55.72;100279.59;5002819;28;20068;-72
2023/08/06 00:47:26;;;;;;;2.70;1.50;;;;;;;21.92;56.00;100272.63;5003187;28;20033;-71
2023/08/06 00:49:51;;;;;;;3.22;1.50;;;;;;;21.93;55.58;100276.94;5003040;28;20029;-70
2023/08/06 00:52:17;;;;;;;3.67;1.60;;;;;;;21.91;55.99;100271.78;5002879;28;20029;-78
2023/08/06 00:54:42;;;;;;;3.40;1.60;;;;;;;21.92;55.99;100276.13;5017619;28;20053;-71
2023/08/06 00:57:09;;;;;;;2.70;1.45;;;;;;;21.91;55.99;100269.16;5002102;28;20022;-72
2023/08/06 00:59:34;;;;;;;2.75;1.33;;;;;;;21.91;55.73;100273.63;5003483;28;20100;-70
2023/08/06 01:02:00;;;;;;;3.28;1.60;;;;;;;21.91;55.76;100265.69;5002034;28;20444;-77
2023/08/06 01:04:25;;;;;;;4.22;1.70;;;;;;;21.90;55.95;100266.66;5003037;28;20065;-73
2023/08/06 01:07:12;;;;;;;3.15;1.60;;;;;;;21.90;56.35;100262.19;5000842;28;20057;-73
2023/08/06 01:09:57;;;;;;;3.58;1.45;;;;;;;21.91;55.77;100263.84;5002525;28;20037;-74
2023/08/06 01:12:38;;;;;;;2.72;1.42;;;;;;;21.90;56.17;100264.84;5002723;28;20042;-71
2023/08/06 01:15:08;;;;;;;3.75;1.50;;;;;;;21.90;56.09;100264.84;5003072;28;20034;-74
2023/08/06 01:17:35;;;;;;;2.97;1.48;;;;;;;21.90;55.91;100264.00;5002387;28;20494;-79
2023/08/06 01:20:00;;;;;;;3.08;1.30;;;;;;;21.89;55.97;100263.19;5001392;28;20038;-72
2023/08/06 01:22:26;;;;;;;4.28;1.55;;;;;;;21.90;56.02;100264.00;5002472;28;20828;-71
2023/08/06 01:24:53;;;;;;;2.92;1.40;;;;;;;21.89;55.88;100268.50;5002204;28;20129;-70
2023/08/06 01:27:38;;;;;;;5.22;1.50;;;;;;;21.89;55.72;100260.53;5002668;28;20030;-71
2023/08/06 01:30:11;;;;;;;5.15;1.80;;;;;;;21.88;56.02;100269.47;5002459;28;20047;-73
2023/08/06 01:32:48;;;;;;;3.22;1.50;;;;;;;21.87;56.03;100265.19;5000537;28;20045;-75
2023/08/06 01:35:17;;;;;;;2.78;1.50;;;;;;;21.88;56.06;100264.16;5002640;28;20061;-78
2023/08/06 01:37:43;;;;;;;4.03;1.60;;;;;;;21.88;56.13;100264.16;5002213;28;20038;-78
2023/08/06 01:40:12;;;;;;;7.82;1.92;;;;;;;21.87;55.97;100259.88;5001507;28;20033;-71
2023/08/06 01:42:38;;;;;;;3.80;1.50;;;;;;;21.88;55.76;100266.81;5000659;28;20029;-71
2023/08/06 01:45:05;;;;;;;3.25;1.40;;;;;;;21.88;55.85;100263.34;5001809;28;20912;-77
2023/08/06 01:47:30;;;;;;;3.63;1.58;;;;;;;21.87;55.83;100257.22;5002422;28;20482;-77
2023/08/06 01:49:56;;;;;;;3.45;1.30;;;;;;;21.85;56.34;100253.06;5002326;28;20045;-70
2023/08/06 01:52:21;;;;;;;3.72;1.63;;;;;;;21.86;56.03;100258.19;5002053;28;20778;-75
2023/08/06 01:54:46;;;;;;;3.30;1.40;;;;;;;21.87;55.97;100256.38;5002264;28;20034;-71
2023/08/06 01:57:12;;;;;;;3.95;1.48;;;;;;;21.87;55.84;100254.56;5002599;28;20386;-75
2023/08/06 01:59:38;;;;;;;3.10;1.38;;;;;;;21.86;55.84;100255.56;5001885;28;20426;-71
2023/08/06 02:02:04;;;;;;;3.42;1.48;;;;;;;21.86;55.81;100254.72;5000701;28;20389;-71
2023/08/06 02:04:29;;;;;;;3.08;1.40;;;;;;;21.85;55.78;100251.22;5001593;28;20117;-74
2023/08/06 02:06:54;;;;;;;2.45;1.20;;;;;;;21.86;55.57;100254.72;5001657;28;20034;-78
2023/08/06 02:09:20;;;;;;;2.72;1.40;;;;;;;21.86;55.68;100257.38;5002052;28;20030;-75
2023/08/06 02:11:45;;;;;;;3.45;1.30;;;;;;;21.86;55.86;100262.69;5001390;28;20100;-79
2023/08/06 02:14:11;;;;;;;4.35;1.70;;;;;;;21.85;55.87;100258.38;5001646;28;20925;-75
2023/08/06 02:16:37;;;;;;;3.83;1.42;;;;;;;21.85;55.62;100268.97;5001481;28;20153;-74
2023/08/06 02:19:02;;;;;;;3.08;1.40;;;;;;;21.85;55.87;100263.66;5001800;28;20116;-72
2023/08/06 02:21:29;;;;;;;3.22;1.50;;;;;;;21.83;55.68;100260.34;5000983;28;20495;-71
2023/08/06 02:23:54;;;;;;;4.70;1.55;;;;;;;21.85;55.86;100263.66;5001215;28;20108;-77
2023/08/06 02:26:20;;;;;;;4.35;1.38;;;;;;;21.84;55.96;100262.84;5000956;28;20045;-79
2023/08/06 02:28:45;;;;;;;3.30;1.48;;;;;;;21.86;55.90;100262.69;5001065;28;20108;-72
2023/08/06 02:31:10;;;;;;;2.83;1.30;;;;;;;21.85;55.79;100266.31;5001318;28;20545;-79
2023/08/06 02:33:36;;;;;;;2.95;1.63;;;;;;;21.82;55.70;100251.56;5001640;28;20057;-72
2023/08/06 02:36:04;;;;;;;3.22;1.60;;;;;;;21.81;55.72;100257.03;5000886;28;20164;-76
2023/08/06 02:38:33;;;;;;;3.28;1.52;;;;;;;21.83;55.82;100257.72;5001314;28;20030;-73
2023/08/06 02:40:58;;;;;;;2.95;1.33;;;;;;;21.83;55.48;100263.84;5000579;28;20042;-72
2023/08/06 02:43:24;;;;;;;4.97;1.50;;;;;;;21.83;55.74;100255.06;5001076;28;20052;-72
2023/08/06 02:45:49;;;;;;;3.53;1.52;;;;;;;21.82;55.80;100254.19;5000766;28;20044;-79
2023/08/06 02:48:15;;;;;;;3.60;1.50;;;;;;;21.82;55.69;100258.69;5001589;28;20160;-72
2023/08/06 02:50:41;;;;;;;3.83;1.65;;;;;;;21.83;55.42;100257.72;5000506;28;20037;-77
2023/08/06 02:53:07;;;;;;;3.03;1.30;;;;;;;21.81;55.67;100255.22;5000952;28;20037;-77
2023/08/06 02:55:34;;;;;;;4.18;1.20;;;;;;;21.82;56.03;100253.38;5000336;28;20034;-73
2023/08/06 02:58:00;;;;;;;3.67;1.50;;;;;;;21.82;55.83;100248.91;5000179;28;20619;-77
2023/08/06 03:00:25;;;;;;;3.05;1.33;;;;;;;21.80;55.54;100250.91;5000997;28;20040;-71
2023/08/06 03:02:51;;;;;;;3.13;1.55;;;;;;;21.80;55.71;100247.41;4999746;28;20970;-77
2023/08/06 03:05:16;;;;;;;3.78;1.50;;;;;;;21.81;55.67;100246.41;5000658;28;20082;-71
2023/08/06 03:07:41;;;;;;;2.70;1.27;;;;;;;21.81;55.62;100252.56;5000531;28;20088;-75
2023/08/06 03:10:07;;;;;;;2.83;1.30;;;;;;;21.80;55.65;100248.25;5000656;28;20069;-72
2023/08/06 03:12:32;;;;;;;2.90;1.30;;;;;;;21.80;55.76;100245.59;5000728;28;20022;-72
2023/08/06 03:14:58;;;;;;;3.08;1.30;;;;;;;21.81;55.70;100246.41;5000476;28;20117;-71
2023/08/06 03:17:23;;;;;;;3.08;1.23;;;;;;;21.80;55.91;100250.06;4999965;28;20041;-71
2023/08/06 03:19:48;;;;;;;3.22;1.50;;;;;;;21.80;55.85;100250.06;5000474;28;20036;-72
2023/08/06 03:22:14;;;;;;;2.85;1.33;;;;;;;21.80;56.09;100250.06;4998695;28;20038;-72
2023/08/06 03:24:39;;;;;;;2.90;1.30;;;;;;;21.80;55.91;100247.41;5000374;28;20026;-78
2023/08/06 03:27:05;;;;;;;2.92;1.30;;;;;;;21.80;55.59;100250.06;5000887;28;20052;-72
2023/08/06 03:29:30;;;;;;;2.72;1.20;;;;;;;21.79;55.72;100251.06;5000725;28;20121;-72
2023/08/06 03:31:55;;;;;;;3.20;1.20;;;;;;;21.79;55.62;100257.19;4999489;28;20560;-76
2023/08/06 03:34:21;;;;;;;3.58;1.70;;;;;;;21.80;55.70;100258.03;5001076;28;20037;-72
2023/08/06 03:36:46;;;;;;;4.22;1.40;;;;;;;21.79;55.99;100253.72;5015223;28;20077;-76
2023/08/06 03:39:11;;;;;;;2.22;1.10;;;;;;;21.80;55.56;100252.72;4999939;28;20033;-76
2023/08/06 03:41:37;;;;;;;4.20;1.30;;;;;;;21.77;55.61;100253.88;4999068;28;20037;-73
2023/08/06 03:44:03;;;;;;;4.55;1.63;;;;;;;21.79;55.89;100256.38;5000460;28;20478;-75
2023/08/06 03:46:29;;;;;;;2.55;1.23;;;;;;;21.78;55.65;100258.19;4998669;28;20026;-70
2023/08/06 03:48:55;;;;;;;2.67;1.30;;;;;;;21.79;55.90;100261.66;5000343;28;20037;-70
2023/08/06 03:51:20;;;;;;;3.28;1.40;;;;;;;21.77;55.98;100259.19;5000949;28;20084;-73
2023/08/06 03:53:45;;;;;;;3.60;1.40;;;;;;;21.78;56.01;100260.00;5000147;28;20064;-71
2023/08/06 03:56:10;;;;;;;3.45;1.40;;;;;;;21.78;56.00;100262.66;5000450;28;20030;-71
2023/08/06 03:58:36;;;;;;;3.15;1.30;;;;;;;21.77;55.74;100256.53;5000608;28;20038;-78
2023/08/06 04:01:02;;;;;;;2.85;1.35;;;;;;;21.78;55.77;100262.66;5000509;28;20113;-70
2023/08/06 04:03:28;;;;;;;3.38;1.30;;;;;;;21.76;55.98;100265.47;4999524;28;20061;-72
2023/08/06 04:05:54;;;;;;;2.97;1.30;;;;;;;21.77;56.25;100267.13;5000589;28;20038;-73
2023/08/06 04:08:19;;;;;;;2.88;1.20;;;;;;;21.77;55.75;100263.66;5003779;28;20099;-73
2023/08/06 04:10:45;;;;;;;2.85;1.27;;;;;;;21.77;55.58;100274.25;5002377;28;20034;-72
2023/08/06 04:13:10;;;;;;;2.47;1.40;;;;;;;21.75;55.82;100274.44;5003650;28;20444;-71
2023/08/06 04:15:35;;;;;;;4.68;1.40;;;;;;;21.76;55.80;100264.63;5004204;28;20474;-71
2023/08/06 04:18:01;;;;;;;3.42;1.60;;;;;;;21.76;55.60;100270.75;5003699;28;20053;-76
2023/08/06 04:20:26;;;;;;;3.25;1.65;;;;;;;21.74;55.73;100268.28;5004014;28;20030;-73
2023/08/06 04:22:54;;;;;;;2.88;1.40;;;;;;;21.74;55.58;100275.41;5003804;28;20124;-76
2023/08/06 04:25:20;;;;;;;2.47;1.30;;;;;;;21.76;55.86;100275.25;5002051;28;20531;-72
2023/08/06 04:27:47;;;;;;;3.00;1.40;;;;;;;21.75;55.75;100274.44;5003374;28;20483;-72
2023/08/06 04:30:12;;;;;;;3.83;1.50;;;;;;;21.75;55.54;100282.38;5004332;28;20501;-71
2023/08/06 04:32:39;;;;;;;3.35;1.42;;;;;;;21.74;55.63;100278.88;5003772;28;20034;-75
2023/08/06 04:35:05;;;;;;;2.58;1.30;;;;;;;21.75;55.61;100282.38;5003101;28;20049;-72
2023/08/06 04:37:30;;;;;;;4.50;1.30;;;;;;;21.75;55.83;100282.38;4983152;28;20261;-71
2023/08/06 04:39:55;;;;;;;3.25;1.50;;;;;;;21.73;56.07;100285.19;5004430;28;20569;-71
2023/08/06 04:42:21;;;;;;;3.53;1.23;;;;;;;21.74;55.77;100288.66;5002173;28;20056;-71
2023/08/06 04:44:46;;;;;;;2.63;1.27;;;;;;;21.73;55.70;100285.19;5004317;28;20034;-71
2023/08/06 04:47:11;;;;;;;2.10;1.10;;;;;;;21.74;55.74;100289.50;5003838;28;20038;-72
2023/08/06 04:49:37;;;;;;;3.42;1.30;;;;;;;21.74;56.10;100294.78;5002193;28;20406;-76
2023/08/06 04:52:02;;;;;;;2.25;1.13;;;;;;;21.75;55.96;100287.69;5001696;28;20026;-72
2023/08/06 04:54:27;;;;;;;2.80;1.30;;;;;;;21.72;55.77;100296.78;5002113;28;20103;-74
2023/08/06 04:56:53;;;;;;;3.20;1.50;;;;;;;21.75;55.73;100300.94;5002310;28;20406;-71
2023/08/06 04:59:18;;;;;;;3.00;1.17;;;;;;;21.74;55.66;100293.97;5001995;28;20148;-73
2023/08/06 05:01:43;;;;;;;2.80;1.23;;;;;;;21.73;55.62;100298.47;5002075;28;20038;-71
2023/08/06 05:04:09;;;;;;;3.03;1.40;;;;;;;21.74;55.93;100301.94;5003083;28;20483;-72
2023/08/06 05:06:34;;;;;;;3.08;1.48;;;;;;;21.73;55.88;100303.75;5002525;28;20065;-77
2023/08/06 05:08:59;;;;;;;3.60;1.50;;;;;;;21.72;55.63;100299.44;5003069;28;20037;-72
2023/08/06 05:11:25;;;;;;;3.60;1.50;;;;;;;21.72;55.69;100310.03;5003429;28;20038;-76
2023/08/06 05:13:50;;;;;;;4.20;1.75;;;;;;;21.72;56.09;100304.75;5003387;28;20459;-71
2023/08/06 05:16:15;;;;;;;2.95;1.35;;;;;;;21.72;55.93;100310.03;5000715;28;20145;-73
2023/08/06 05:18:41;;;;;;;3.65;1.40;;;;;;;21.72;55.97;100320.66;5003353;28;20033;-77
2023/08/06 05:21:07;;;;;;;4.05;1.50;;;;;;;21.72;55.95;100318.00;5002686;28;20033;-79
2023/08/06 05:23:32;;;;;;;3.92;1.40;;;;;;;21.71;55.70;100319.00;5001928;28;20038;-72
2023/08/06 05:25:58;;;;;;;3.08;1.30;;;;;;;21.72;55.84;100328.59;5002527;28;20041;-75
2023/08/06 05:28:23;;;;;;;3.03;1.40;;;;;;;21.71;56.02;100319.00;5002240;28;20034;-75
2023/08/06 05:30:48;;;;;;;2.85;1.30;;;;;;;21.73;55.92;100326.81;5001598;28;20042;-73
2023/08/06 05:33:14;;;;;;;2.80;1.40;;;;;;;21.71;56.15;100326.97;5002807;28;20069;-73
2023/08/06 05:35:42;;;;;;;2.58;1.58;;;;;;;21.72;56.04;100333.09;5001429;28;20034;-70
2023/08/06 05:38:07;;;;;;;2.75;1.30;;;;;;;21.72;56.00;100325.13;5001978;28;20113;-76
2023/08/06 05:40:34;;;;;;;3.05;1.30;;;;;;;21.72;55.90;100341.06;5002707;28;20105;-75
2023/08/06 05:42:59;;;;;;;3.42;1.45;;;;;;;21.71;55.92;100348.19;5002016;28;20099;-72
2023/08/06 05:45:24;;;;;;;3.22;1.17;;;;;;;21.72;55.95;100346.34;5000893;28;20636;-77
2023/08/06 05:47:50;;;;;;;2.95;1.40;;;;;;;21.71;56.14;100358.78;5001196;28;20121;-72
2023/08/06 05:50:15;;;;;;;3.83;1.40;;;;;;;21.71;55.75;100357.94;5001755;28;20036;-76
2023/08/06 05:52:40;;;;;;;3.42;1.40;;;;;;;21.72;56.20;100363.09;5001505;28;20478;-70
2023/08/06 05:55:06;;;;;;;4.25;1.30;;;;;;;21.71;55.69;100368.56;5002280;28;20038;-73
2023/08/06 05:57:31;;;;;;;2.67;1.20;;;;;;;21.71;56.33;100363.25;5001241;28;20032;-71
2023/08/06 05:59:57;;;;;;;3.40;1.60;;;;;;;21.71;55.90;100361.44;5001701;28;20042;-71
2023/08/06 06:02:22;;;;;;;2.65;1.40;;;;;;;21.71;55.97;100371.19;5001591;28;20065;-70
2023/08/06 06:04:47;;;;;;;3.25;1.40;;;;;;;21.72;56.23;100370.22;5001828;28;20483;-78
2023/08/06 06:07:14;;;;;;;4.13;1.50;;;;;;;21.72;56.10;100375.53;5000675;28;20030;-71
2023/08/06 06:09:39;;;;;;;2.75;1.35;;;;;;;21.71;56.09;100380.00;5001282;28;20025;-72
2023/08/06 06:12:05;;;;;;;3.30;1.65;;;;;;;21.70;56.17;100380.16;5001955;28;20026;-77
2023/08/06 06:14:31;;;;;;;2.90;1.40;;;;;;;21.71;56.33;100389.75;5001396;28;20096;-76
2023/08/06 06:16:56;;;;;;;3.88;1.60;;;;;;;21.70;55.90;100385.47;5001640;28;20037;-77
2023/08/06 06:19:21;;;;;;;3.08;1.52;;;;;;;21.70;56.22;100396.91;5000649;28;20700;-75
2023/08/06 06:21:47;;;;;;;2.55;1.40;;;;;;;21.70;55.93;100390.78;5001884;28;20193;-75
2023/08/06 06:24:12;;;;;;;4.32;1.50;;;;;;;21.70;56.25;100406.69;5005179;28;20026;-73
2023/08/06 06:26:38;;;;;;;3.03;1.30;;;;;;;21.70;56.20;100409.34;5004084;28;20030;-72
2023/08/06 06:29:03;;;;;;;6.28;1.95;;;;;;;21.70;56.29;100409.34;5000745;28;20034;-75
2023/08/06 06:31:29;;;;;;;3.05;1.35;;;;;;;21.69;56.14;100415.63;5001802;28;20044;-79
2023/08/06 06:33:54;;;;;;;2.90;1.30;;;;;;;21.70;56.23;100415.47;5001125;28;20806;-74
2023/08/06 06:36:20;;;;;;;2.70;1.30;;;;;;;21.69;56.25;100427.06;5000872;28;20125;-77
2023/08/06 06:38:45;;;;;;;3.47;1.40;;;;;;;21.70;56.34;100422.59;5001284;28;20037;-72
2023/08/06 06:41:11;;;;;;;3.47;1.20;;;;;;;21.69;56.07;100423.56;5001354;28;20175;-79
2023/08/06 06:43:38;;;;;;;2.75;1.30;;;;;;;21.70;56.34;100433.22;5000714;28;20045;-77
2023/08/06 06:46:03;;;;;;;2.80;1.40;;;;;;;21.69;56.10;100440.31;5000676;28;20033;-76
2023/08/06 06:48:33;;;;;;;1.85;0.98;;;;;;;21.69;56.22;100450.91;5001261;28;20449;-73
2023/08/06 06:50:58;;;;;;;3.42;1.13;;;;;;;21.70;55.74;100449.13;5000116;28;20100;-79
2023/08/06 06:53:30;;;;;;;2.75;1.05;;;;;;;21.68;56.01;100461.69;5000114;28;20510;-71
2023/08/06 06:56:00;;;;;;;4.93;1.30;;;;;;;21.70;56.04;100454.41;4999477;28;20105;-73
2023/08/06 06:58:26;;;;;;;3.53;1.27;;;;;;;21.71;55.96;100464.88;4998926;28;20882;-73
2023/08/06 07:00:51;;;;;;;3.65;1.30;;;;;;;21.70;55.91;100462.38;5001317;28;20038;-73
2023/08/06 07:03:17;;;;;;;2.63;1.20;;;;;;;21.71;55.78;100467.53;5001066;28;20560;-71
2023/08/06 07:05:44;;;;;;;2.80;1.30;;;;;;;21.69;55.84;100466.00;5000226;28;20124;-75
2023/08/06 07:08:09;;;;;;;5.05;1.60;;;;;;;21.71;55.96;100471.97;5000799;28;20034;-73
2023/08/06 07:10:35;;;;;;;4.03;1.50;;;;;;;21.69;55.96;100474.78;5001301;28;20398;-74
2023/08/06 07:13:00;;;;;;;7.22;1.58;;;;;;;21.69;56.07;100479.28;5000706;28;20099;-77
2023/08/06 07:15:26;;;;;;;3.47;1.58;;;;;;;21.68;56.60;100480.25;5002602;28;20057;-71
2023/08/06 07:17:51;;;;;;;6.88;1.48;;;;;;;21.65;56.53;100481.41;5000044;28;20286;-72
2023/08/06 07:20:16;;;;;;;3.30;1.55;;;;;;;21.66;56.52;100493.66;5001478;28;20037;-72
2023/08/06 07:22:42;;;;;;;5.70;1.70;;;;;;;21.67;56.65;100498.00;5000503;28;20061;-72
2023/08/06 07:25:07;;;;;;;3.50;1.67;;;;;;;21.69;56.53;100501.31;5001343;28;20036;-72
2023/08/06 07:27:33;;;;;;;4.57;1.50;;;;;;;21.69;56.58;100508.44;4999893;28;20314;-76
2023/08/06 07:29:59;;;;;;;5.18;1.80;;;;;;;21.69;56.72;100508.44;5000959;28;20100;-73
2023/08/06 07:32:24;;;;;;;3.78;1.80;;;;;;;21.69;56.58;100514.56;5001261;28;20069;-72
2023/08/06 07:34:49;;;;;;;4.55;1.88;;;;;;;21.68;56.38;100526.19;5000829;28;20046;-73
2023/08/06 07:37:15;;;;;;;3.92;1.90;;;;;;;21.66;56.28;100522.84;5000196;28;20547;-74
2023/08/06 07:39:42;;;;;;;4.00;1.90;;;;;;;21.68;56.52;100525.31;5001707;28;20033;-73
2023/08/06 07:42:07;;;;;;;5.85;2.17;;;;;;;21.68;56.70;100535.94;5004857;28;20475;-76
2023/08/06 07:44:33;;;;;;;4.70;1.77;;;;;;;21.67;56.40;100526.34;5004501;28;20041;-72
2023/08/06 07:46:58;;;;;;;3.90;2.05;;;;;;;21.68;56.84;100533.28;5004182;28;20058;-74
2023/08/06 07:49:24;;;;;;;3.67;1.80;;;;;;;21.65;56.71;100538.91;5004245;28;20120;-77
2023/08/06 07:51:51;;;;;;;4.22;1.67;;;;;;;21.66;57.15;100524.66;5003753;28;20108;-70
2023/08/06 07:54:17;;;;;;;5.05;2.17;;;;;;;21.66;57.04;100538.75;5004603;28;20033;-72
2023/08/06 07:56:42;;;;;;;3.67;1.92;;;;;;;21.65;57.01;100537.09;5004417;28;20034;-72
2023/08/06 07:59:08;;;;;;;4.32;1.90;;;;;;;21.68;57.11;100533.28;5003841;28;20036;-73
2023/08/06 08:01:33;;;;;;;4.85;2.00;;;;;;;21.69;56.97;100529.66;5004100;28;20029;-73
2023/08/06 08:03:59;;;;;;;4.25;1.92;;;;;;;21.67;56.82;100539.59;5003747;28;20049;-73
2023/08/06 08:06:24;;;;;;;5.47;2.22;;;;;;;21.68;57.07;100541.25;5004690;28;20034;-74
2023/08/06 08:08:50;;;;;;;5.30;1.63;;;;;;;21.67;56.85;100535.13;5004225;28;20040;-74
2023/08/06 08:11:16;;;;;;;6.25;2.10;;;;;;;21.69;56.80;100540.25;5004541;28;20034;-78
2023/08/06 08:13:41;;;;;;;3.88;1.90;;;;;;;21.69;57.13;100541.09;5001215;28;20029;-73
2023/08/06 08:16:06;;;;;;;7.93;2.40;;;;;;;21.68;57.35;100538.59;5003050;28;20044;-73
2023/08/06 08:18:32;;;;;;;6.90;2.33;;;;;;;21.60;57.46;100536.72;5002288;28;20544;-74
2023/08/06 08:20:57;;;;;;;6.38;2.28;;;;;;;21.56;57.83;100543.31;5002594;28;20034;-73
2023/08/06 08:23:23;;;;;;;6.95;1.90;;;;;;;21.55;57.99;100552.25;5002870;28;20041;-74
2023/08/06 08:25:48;;;;;;;5.32;2.40;;;;;;;21.55;57.75;100550.47;5002876;28;20034;-74
2023/08/06 08:28:13;;;;;;;4.70;2.20;;;;;;;21.54;57.62;100550.63;5002630;28;20034;-71
2023/08/06 08:30:41;;;;;;;6.30;2.40;;;;;;;21.53;57.92;100549.75;5002329;28;20040;-74
2023/08/06 08:33:07;;;;;;;6.72;2.25;;;;;;;21.53;57.77;100554.25;5003173;28;20410;-72
2023/08/06 08:35:34;;;;;;;7.55;2.28;;;;;;;21.54;57.79;100561.22;5003702;28;20088;-75
2023/08/06 08:37:59;;;;;;;5.03;2.05;;;;;;;21.51;58.25;100556.22;5004144;28;20141;-78
2023/08/06 08:40:32;;;;;;;6.15;2.40;;;;;;;21.51;58.15;100569.47;5003606;28;20197;-74
2023/08/06 08:42:59;;;;;;;6.25;2.10;;;;;;;21.50;58.10;100571.28;5003278;28;20030;-78
2023/08/06 08:45:29;;;;;;;4.55;2.10;;;;;;;21.50;58.12;100573.94;5003349;28;20030;-75
2023/08/06 08:47:55;;;;;;;5.72;2.40;;;;;;;21.52;58.00;100571.13;5001789;28;20125;-73
2023/08/06 08:50:21;;;;;;;8.13;2.38;;;;;;;21.50;57.88;100579.22;5003491;28;20265;-70
2023/08/06 08:52:48;;;;;;;9.32;2.20;;;;;;;21.49;57.89;100577.59;5002686;28;20043;-76
2023/08/06 08:55:15;;;;;;;4.18;2.08;;;;;;;21.50;57.82;100575.75;5001509;28;20076;-76
2023/08/06 08:57:40;;;;;;;7.00;2.10;;;;;;;21.49;57.83;100579.38;5001027;28;20124;-76
2023/08/06 09:00:06;;;;;;;4.32;2.40;;;;;;;21.51;58.14;100593.34;5002219;28;20044;-71
2023/08/06 09:02:33;;;;;;;5.55;2.30;;;;;;;21.49;57.84;100585.53;5002252;28;20058;-83
2023/08/06 09:05:02;;;;;;;8.98;2.63;;;;;;;21.49;57.62;100582.88;5003409;28;20037;-73
2023/08/06 09:07:30;;;;;;;5.80;2.15;;;;;;;21.48;57.76;100598.91;5003977;28;20036;-72
2023/08/06 09:09:57;;;;;;;4.10;2.05;;;;;;;21.48;57.91;100606.88;5002251;28;20034;-72
2023/08/06 09:12:22;;;;;;;5.82;2.42;;;;;;;21.49;57.90;100616.50;5003229;28;20041;-77
2023/08/06 09:14:47;;;;;;;6.20;2.40;;;;;;;21.48;57.96;100615.66;5003798;28;20030;-71
2023/08/06 09:17:13;;;;;;;4.90;2.35;;;;;;;21.49;57.83;100625.31;5003328;28;20048;-77
2023/08/06 09:19:46;;;;;;;4.60;2.28;;;;;;;21.46;57.70;100622.94;5002202;28;20040;-74
2023/08/06 09:22:13;;;;;;;7.13;2.15;;;;;;;21.48;57.79;100625.44;5000694;28;20030;-74
2023/08/06 09:24:40;;;;;;;4.57;2.35;;;;;;;21.48;58.03;100633.38;5002065;28;20053;-77
2023/08/06 09:27:10;;;;;;;6.13;2.10;;;;;;;21.45;57.83;100634.50;4999965;28;20038;-81
2023/08/06 09:29:40;;;;;;;6.50;2.30;;;;;;;21.46;58.10;100643.28;4997671;28;20041;-78
2023/08/06 09:32:06;;;;;;;12.73;2.72;;;;;;;21.46;58.02;100646.78;5002432;28;20033;-81
2023/08/06 09:34:31;;;;;;;4.68;2.33;;;;;;;21.49;57.68;100651.81;5004497;28;20029;-72
2023/08/06 09:36:56;;;;;;;6.18;2.33;;;;;;;21.52;57.91;100650.66;5000500;28;20486;-76
2023/08/06 09:39:27;;;;;;;5.72;2.30;;;;;;;21.53;57.62;100655.81;5001797;28;20029;-77
2023/08/06 09:41:56;;;;;;;4.90;2.40;;;;;;;21.53;57.92;100663.78;5001518;28;20029;-73
2023/08/06 09:44:23;;;;;;;4.88;2.38;;;;;;;21.53;57.52;100660.28;5001406;28;20030;-78
2023/08/06 09:46:56;;;;;;;9.93;2.40;;;;;;;21.56;57.48;100665.28;5001773;28;20038;-72
2023/08/06 09:49:32;;;;;;;4.13;2.25;;;;;;;21.58;57.83;100660.66;5001751;28;20045;-73
2023/08/06 09:51:59;;;;;;;6.35;2.40;;;;;;;21.60;57.60;100666.63;5001365;28;20084;-74
2023/08/06 09:54:26;;;;;;;6.88;2.00;;;;;;;21.60;57.58;100663.16;5001629;28;20121;-78
2023/08/06 09:56:53;;;;;;;4.82;2.17;;;;;;;21.59;57.98;100672.09;5001107;28;20034;-73
2023/08/06 09:59:19;;;;;;;3.95;2.25;;;;;;;21.58;57.74;100676.56;5000700;28;20033;-75
2023/08/06 10:01:45;;;;;;;5.35;2.10;;;;;;;21.57;58.01;100677.59;5001035;28;20116;-74
2023/08/06 10:04:15;;;;;;;6.05;2.28;;;;;;;21.55;58.16;100679.53;5000860;28;20083;-77
2023/08/06 10:06:42;;;;;;;4.10;2.03;;;;;;;21.57;57.91;100677.59;5001446;28;20122;-76
2023/08/06 10:09:10;;;;;;;8.00;2.55;;;;;;;21.55;57.80;100680.38;5001347;28;20052;-75
2023/08/06 10:11:37;;;;;;;8.43;2.70;;;;;;;21.56;57.97;100683.84;5001263;28;20042;-77
2023/08/06 10:14:33;;;;;;;6.00;2.03;;;;;;;21.58;57.71;100679.22;4999699;28;20038;-81
2023/08/06 10:16:59;;;;;;;4.78;2.30;;;;;;;21.59;57.42;100680.03;4997509;28;20073;-74
2023/08/06 10:19:26;;;;;;;8.02;2.38;;;;;;;21.62;57.67;100693.00;5000242;28;20076;-74
2023/08/06 10:22:15;;;;;;;7.65;2.80;;;;;;;21.58;58.02;100687.19;5000378;28;20026;-72
2023/08/06 10:24:48;;;;;;;5.30;2.30;;;;;;;21.56;57.96;100689.16;5000912;28;20387;-73
2023/08/06 10:27:13;;;;;;;9.48;2.08;;;;;;;21.56;57.94;100692.63;5000527;28;20033;-77
2023/08/06 10:29:39;;;;;;;8.83;2.30;;;;;;;21.55;58.14;100690.13;5000844;28;20376;-71
2023/08/06 10:32:05;;;;;;;6.97;2.40;;;;;;;21.54;57.99;100697.25;5001198;28;20758;-73
2023/08/06 10:35:00;;;;;;;6.20;2.03;;;;;;;21.53;58.01;100692.94;5000077;28;20041;-74
2023/08/06 10:37:36;;;;;;;7.22;2.28;;;;;;;21.52;57.91;100690.44;4998426;28;20034;-76
2023/08/06 10:40:02;;;;;;;5.47;2.15;;;;;;;21.54;58.14;100691.97;4999647;28;20033;-73
2023/08/06 10:42:29;;;;;;;6.35;2.30;;;;;;;21.59;57.80;100691.50;5000498;28;20607;-74
2023/08/06 10:45:17;;;;;;;6.63;2.13;;;;;;;21.72;57.12;100697.25;4999557;28;20033;-73
2023/08/06 10:47:43;;;;;;;9.30;2.42;;;;;;;21.81;56.84;100700.84;4999189;28;20117;-72
2023/08/06 10:50:18;;;;;;;6.82;2.40;;;;;;;21.80;56.99;100701.81;4998222;28;20605;-71
2023/08/06 10:52:44;;;;;;;7.72;2.65;;;;;;;21.79;57.52;100705.44;4999386;28;20042;-79
2023/08/06 10:55:10;;;;;;;4.97;2.13;;;;;;;21.80;57.38;100708.94;5000373;28;20117;-74
2023/08/06 10:57:35;;;;;;;6.13;2.47;;;;;;;21.87;56.93;100705.53;4998815;28;20905;-74
2023/08/06 11:00:01;;;;;;;4.90;2.60;;;;;;;21.93;57.04;100712.03;4999139;28;20447;-75
2023/08/06 11:02:26;;;;;;;5.72;2.08;;;;;;;21.93;57.20;100710.19;4999533;28;20058;-76
2023/08/06 11:04:52;;;;;;;3.85;1.92;;;;;;;21.98;56.98;100708.91;4998469;28;20477;-76
2023/08/06 11:07:17;;;;;;;7.50;2.40;;;;;;;21.97;56.91;100718.72;5000386;28;20546;-76
2023/08/06 11:09:42;;;;;;;5.45;2.40;;;;;;;21.97;57.11;100710.75;5000145;28;20052;-75
2023/08/06 11:12:11;;;;;;;4.50;2.40;;;;;;;21.95;56.94;100712.69;4999520;28;20042;-86
2023/08/06 11:14:38;;;;;;;4.22;2.17;;;;;;;21.96;57.07;100717.03;4997794;28;20029;-77
2023/08/06 11:17:03;;;;;;;7.68;2.42;;;;;;;;;;4999027;28;20030;-74
2023/08/06 11:19:29;;;;;;;5.65;2.50;;;;;;;21.98;57.10;100717.69;4998822;28;20026;-76
2023/08/06 11:21:54;;;;;;;5.38;2.40;;;;;;;21.99;57.05;100718.56;4999745;28;20033;-71
2023/08/06 11:24:20;;;;;;;5.50;2.38;;;;;;;21.99;57.18;100714.06;4999547;28;20053;-71